createdAt,value
2023-01-01T00:00:49.440Z,100921.81
2023-01-01T00:03:17.465Z,100914.38
2023-01-01T00:05:44.877Z,100909.44
2023-01-01T00:08:12.286Z,100914.78
2023-01-01T00:10:40.081Z,100910.31
2023-01-01T00:13:07.493Z,100924.75
2023-01-01T00:15:35.247Z,100923.69
2023-01-01T00:18:02.934Z,100922.88
2023-01-01T00:20:35.147Z,100911.53
2023-01-01T00:23:03.629Z,100909.03
2023-01-01T00:25:32.596Z,100915.09
2023-01-01T00:28:00.554Z,100907.00
2023-01-01T00:30:28.276Z,100909.66
2023-01-01T00:32:56.546Z,100908.72
2023-01-01T00:35:25.465Z,100900.31
2023-01-01T00:37:53.976Z,100900.56
2023-01-01T00:40:21.632Z,100910.12
2023-01-01T00:42:48.998Z,100916.88
2023-01-01T00:45:21.440Z,100911.53
2023-01-01T00:47:53.486Z,100896.03
2023-01-01T00:50:22.155Z,100915.44
2023-01-01T00:52:50.009Z,100921.56
2023-01-01T00:55:17.555Z,100905.88
2023-01-01T00:57:45.255Z,100907.09
2023-01-01T01:00:13.550Z,100908.59
2023-01-01T01:02:41.260Z,100916.38
2023-01-01T01:05:09.758Z,100908.34
2023-01-01T01:07:37.965Z,100907.50
2023-01-01T01:10:06.173Z,100916.88
2023-01-01T01:12:34.710Z,100907.16
2023-01-01T01:15:02.932Z,100910.56
2023-01-01T01:17:31.063Z,100907.66
2023-01-01T01:19:59.053Z,100910.56
2023-01-01T01:22:29.055Z,100912.81
2023-01-01T01:24:57.411Z,100908.31
2023-01-01T01:27:25.479Z,100910.75
2023-01-01T01:29:53.596Z,100910.75
2023-01-01T01:32:20.952Z,100916.09
2023-01-01T01:34:48.763Z,100908.22
2023-01-01T01:37:16.386Z,100900.75
2023-01-01T01:39:43.808Z,100919.97
2023-01-01T01:42:17.353Z,100920.09
2023-01-01T01:44:48.213Z,100923.16
2023-01-01T01:47:32.094Z,100920.81
2023-01-01T01:50:13.380Z,100924.06
2023-01-01T01:52:54.075Z,100917.97
2023-01-01T01:55:21.648Z,100918.72
2023-01-01T01:57:49.357Z,100914.25
2023-01-01T02:00:17.483Z,100915.22
2023-01-01T02:03:01.326Z,100916.66
2023-01-01T02:05:29.353Z,100916.16
2023-01-01T02:07:58.823Z,100915.19
2023-01-01T02:10:27.678Z,100915.72
2023-01-01T02:12:55.188Z,100914.56
2023-01-01T02:15:25.588Z,100913.69
2023-01-01T02:17:59.865Z,100909.91
2023-01-01T02:20:36.066Z,100912.34
2023-01-01T02:23:25.008Z,100916.34
2023-01-01T02:26:15.836Z,100921.66
2023-01-01T02:28:53.314Z,100923.38
2023-01-01T02:31:28.201Z,100933.25
2023-01-01T02:33:59.464Z,100930.03
2023-01-01T02:36:28.466Z,100923.78
2023-01-01T02:38:57.299Z,100938.28
2023-01-01T02:41:28.728Z,100932.00
2023-01-01T02:48:53.174Z,100932.13
2023-01-01T02:51:46.411Z,100939.28
2023-01-01T02:54:19.904Z,100930.59
2023-01-01T02:56:56.692Z,100933.13
2023-01-01T03:00:04.021Z,100929.06
2023-01-01T03:02:52.319Z,100920.88
2023-01-01T03:06:03.329Z,100921.66
2023-01-01T03:08:42.082Z,100921.28
2023-01-01T03:11:12.166Z,100910.81
2023-01-01T03:13:49.665Z,100909.03
2023-01-01T03:16:51.169Z,100922.22
2023-01-01T03:19:24.958Z,100917.25
2023-01-01T03:22:10.470Z,100920.59
2023-01-01T03:24:45.775Z,100903.62
2023-01-01T03:27:20.094Z,100908.34
2023-01-01T03:29:49.239Z,100915.44
2023-01-01T03:32:21.362Z,100910.34
2023-01-01T03:34:54.109Z,100897.56
2023-01-01T03:37:26.793Z,100902.47
2023-01-01T03:39:57.971Z,100899.41
2023-01-01T03:42:43.994Z,100911.56
2023-01-01T03:45:17.666Z,100913.25
2023-01-01T03:47:45.559Z,100905.66
2023-01-01T03:50:14.319Z,100911.94
2023-01-01T03:52:53.861Z,100912.41
2023-01-01T03:55:38.565Z,100905.28
2023-01-01T03:58:21.438Z,100908.75
2023-01-01T04:01:05.350Z,100888.94
2023-01-01T04:03:34.574Z,100893.03
2023-01-01T04:06:03.072Z,100904.03
2023-01-01T04:08:33.103Z,100902.38
2023-01-01T04:11:26.005Z,100899.66
2023-01-01T04:13:53.462Z,100901.09
2023-01-01T04:16:21.248Z,100888.50
2023-01-01T04:18:48.692Z,100902.06
2023-01-01T04:21:16.114Z,100893.91
2023-01-01T04:23:43.814Z,100893.88
2023-01-01T04:26:14.173Z,100887.34
2023-01-01T04:28:42.254Z,100886.09
2023-01-01T04:31:10.376Z,100889.56
2023-01-01T04:33:37.905Z,100899.78
2023-01-01T04:36:07.668Z,100894.75
2023-01-01T04:38:36.197Z,100886.72
2023-01-01T04:41:04.418Z,100888.44
2023-01-01T04:43:32.141Z,100879.16
2023-01-01T04:46:02.859Z,100885.56
2023-01-01T04:48:31.241Z,100895.44
2023-01-01T04:51:00.408Z,100883.84
2023-01-01T04:53:33.012Z,100882.81
2023-01-01T04:56:20.425Z,100877.47
2023-01-01T04:58:48.442Z,100885.19
2023-01-01T05:01:25.784Z,100893.34
2023-01-01T05:03:53.978Z,100893.09
2023-01-01T05:06:21.817Z,100896.38
2023-01-01T05:08:50.775Z,100903.00
2023-01-01T05:11:20.694Z,100894.59
2023-01-01T05:13:50.083Z,100892.56
2023-01-01T05:16:19.869Z,100894.44
2023-01-01T05:18:47.905Z,100888.66
2023-01-01T05:21:18.212Z,100893.44
2023-01-01T05:23:46.054Z,100895.22
2023-01-01T05:26:18.321Z,100887.03
2023-01-01T05:28:47.276Z,100887.87
2023-01-01T05:31:16.798Z,100896.97
2023-01-01T05:33:44.423Z,100897.41
2023-01-01T05:36:23.666Z,100912.72
2023-01-01T05:38:51.655Z,100915.53
2023-01-01T05:41:20.801Z,100914.09
2023-01-01T05:43:48.652Z,100907.87
2023-01-01T05:46:19.148Z,100901.75
2023-01-01T05:48:48.544Z,100913.09
2023-01-01T05:51:20.768Z,100916.16
2023-01-01T05:53:48.569Z,100918.31
2023-01-01T05:56:16.903Z,100927.91
2023-01-01T05:58:45.049Z,100926.88
2023-01-01T06:01:15.756Z,100935.31
2023-01-01T06:03:44.260Z,100938.03
2023-01-01T06:06:14.087Z,100935.72
2023-01-01T06:08:41.934Z,100944.12
2023-01-01T06:11:11.985Z,100952.75
2023-01-01T06:13:39.422Z,100958.84
2023-01-01T06:16:07.335Z,100949.44
2023-01-01T06:18:35.708Z,100969.22
2023-01-01T06:21:08.943Z,100968.09
2023-01-01T06:23:37.315Z,100960.97
2023-01-01T06:26:10.219Z,100970.88
2023-01-01T06:28:38.641Z,100971.91
2023-01-01T06:31:07.902Z,100984.97
2023-01-01T06:33:35.907Z,100973.84
2023-01-01T06:36:06.651Z,100978.75
2023-01-01T06:38:35.440Z,100980.28
2023-01-01T06:41:04.900Z,100975.91
2023-01-01T06:43:34.531Z,100994.75
2023-01-01T06:46:18.276Z,100995.06
2023-01-01T06:48:47.456Z,101006.56
2023-01-01T06:51:28.914Z,101020.88
2023-01-01T06:53:59.771Z,101012.00
2023-01-01T06:56:27.746Z,101003.25
2023-01-01T06:58:55.323Z,101005.84
2023-01-01T07:01:25.303Z,101010.78
2023-01-01T07:03:54.734Z,100994.84
2023-01-01T07:06:22.867Z,100986.63
2023-01-01T07:08:50.700Z,101004.28
2023-01-01T07:11:18.954Z,101002.50
2023-01-01T07:13:46.347Z,101000.16
2023-01-01T07:16:14.430Z,100993.53
2023-01-01T07:18:42.199Z,100997.31
2023-01-01T07:21:34.572Z,100997.97
2023-01-01T07:24:04.607Z,100987.59
2023-01-01T07:26:33.411Z,100989.13
2023-01-01T07:29:08.744Z,100989.78
2023-01-01T07:31:38.377Z,100985.25
2023-01-01T07:34:09.546Z,100982.94
2023-01-01T07:36:37.238Z,100987.06
2023-01-01T07:39:04.657Z,100982.72
2023-01-01T07:41:32.072Z,100990.84
2023-01-01T07:44:00.231Z,100983.63
2023-01-01T07:46:27.750Z,100997.16
2023-01-01T07:48:55.356Z,100994.03
2023-01-01T07:51:23.096Z,101000.00
2023-01-01T07:53:51.821Z,100994.59
2023-01-01T07:56:19.259Z,101004.09
2023-01-01T07:58:46.960Z,101002.56
2023-01-01T08:01:14.990Z,101010.09
2023-01-01T08:03:43.009Z,101018.00
2023-01-01T08:06:12.176Z,101016.00
2023-01-01T08:08:40.334Z,101023.50
2023-01-01T08:11:08.184Z,101024.09
2023-01-01T08:13:35.849Z,101029.09
2023-01-01T08:16:03.523Z,101028.53
2023-01-01T08:18:31.273Z,101030.69
2023-01-01T08:20:58.797Z,101040.06
2023-01-01T08:23:26.284Z,101041.78
2023-01-01T08:25:53.990Z,101045.88
2023-01-01T08:28:21.403Z,101044.06
2023-01-01T08:30:48.816Z,101044.34
2023-01-01T08:33:16.530Z,101045.25
2023-01-01T08:35:46.602Z,101042.25
2023-01-01T08:38:18.066Z,101048.13
2023-01-01T08:40:45.992Z,101045.03
2023-01-01T08:43:13.383Z,101043.91
2023-01-01T08:45:41.115Z,101054.97
2023-01-01T08:48:08.770Z,101039.25
2023-01-01T08:50:36.312Z,101040.75
2023-01-01T08:53:04.137Z,101030.50
2023-01-01T08:55:31.566Z,101024.81
2023-01-01T08:57:58.987Z,101028.84
2023-01-01T09:00:26.810Z,101036.78
2023-01-01T09:02:54.430Z,101032.66
2023-01-01T09:05:21.932Z,101029.97
2023-01-01T09:07:49.631Z,101038.22
2023-01-01T09:10:17.651Z,101040.31
2023-01-01T09:12:45.090Z,101030.66
2023-01-01T09:15:16.005Z,101042.62
2023-01-01T09:17:43.434Z,101033.22
2023-01-01T09:20:10.901Z,101038.03
2023-01-01T09:22:38.613Z,101035.59
2023-01-01T09:25:06.197Z,101045.59
2023-01-01T09:27:33.618Z,101041.78
2023-01-01T09:30:01.353Z,101038.66
2023-01-01T09:32:30.558Z,101037.28
2023-01-01T09:34:57.975Z,101038.38
2023-01-01T09:37:25.690Z,101024.66
2023-01-01T09:39:53.168Z,101032.94
2023-01-01T09:42:32.905Z,101037.59
2023-01-01T09:45:25.941Z,101025.75
2023-01-01T09:47:59.434Z,101028.72
2023-01-01T09:50:41.119Z,101030.28
2023-01-01T09:53:27.612Z,101026.63
2023-01-01T09:56:03.376Z,101034.25
2023-01-01T09:58:35.476Z,101031.19
2023-01-01T10:01:34.236Z,101031.97
2023-01-01T10:04:13.909Z,101025.97
2023-01-01T10:06:50.365Z,101033.47
2023-01-01T10:09:29.120Z,101027.72
2023-01-01T10:12:01.135Z,101029.53
2023-01-01T10:14:33.386Z,101024.72
2023-01-01T10:17:04.036Z,101025.97
2023-01-01T10:19:36.706Z,101024.84
2023-01-01T10:22:08.492Z,101017.25
2023-01-01T10:24:41.986Z,101013.69
2023-01-01T10:27:19.387Z,101014.69
2023-01-01T10:29:49.629Z,101005.56
2023-01-01T10:32:22.184Z,101008.72
2023-01-01T10:34:51.122Z,101015.84
2023-01-01T10:37:18.913Z,101014.13
2023-01-01T10:39:47.027Z,101008.62
2023-01-01T10:42:15.695Z,101002.34
2023-01-01T10:44:43.808Z,100993.09
2023-01-01T10:47:28.600Z,100994.03
2023-01-01T10:49:57.130Z,100996.37
2023-01-01T10:52:27.582Z,100994.69
2023-01-01T10:54:55.282Z,100988.34
2023-01-01T10:57:40.969Z,100991.78
2023-01-01T11:00:22.507Z,100987.00
2023-01-01T11:03:19.707Z,100975.91
2023-01-01T11:06:09.357Z,100972.84
2023-01-01T11:08:39.554Z,100975.78
2023-01-01T11:11:07.705Z,100958.31
2023-01-01T11:13:35.125Z,100947.50
2023-01-01T11:16:02.569Z,100949.31
2023-01-01T11:18:35.939Z,100933.53
2023-01-01T11:21:05.774Z,100932.19
2023-01-01T11:23:37.256Z,100925.25
2023-01-01T11:26:13.387Z,100937.84
2023-01-01T11:28:41.973Z,100935.69
2023-01-01T11:31:16.127Z,100935.47
2023-01-01T11:33:53.384Z,100936.91
2023-01-01T11:36:22.366Z,100935.59
2023-01-01T11:39:27.687Z,100940.62
2023-01-01T11:41:56.909Z,100939.84
2023-01-01T11:44:40.726Z,100942.84
2023-01-01T11:47:22.184Z,100932.28
2023-01-01T11:49:55.854Z,100931.69
2023-01-01T11:52:38.263Z,100927.59
2023-01-01T11:55:17.161Z,100925.28
2023-01-01T11:58:19.323Z,100925.31
2023-01-01T12:00:54.819Z,100918.28
2023-01-01T12:03:34.307Z,100916.78
2023-01-01T12:06:26.457Z,100913.62
2023-01-01T12:09:09.141Z,100912.03
2023-01-01T12:12:00.055Z,100915.88
2023-01-01T12:14:45.190Z,100908.31
2023-01-01T12:17:12.519Z,100905.56
2023-01-01T12:20:00.359Z,100916.00
2023-01-01T12:22:28.005Z,100908.47
2023-01-01T12:24:56.015Z,100903.53
2023-01-01T12:27:36.110Z,100910.75
2023-01-01T12:30:24.663Z,100904.50
2023-01-01T12:33:11.023Z,100891.47
2023-01-01T12:35:54.762Z,100889.56
2023-01-01T12:38:44.496Z,100888.84
2023-01-01T12:41:18.019Z,100891.97
2023-01-01T12:44:04.035Z,100887.25
2023-01-01T12:46:50.487Z,100895.50
2023-01-01T12:49:21.628Z,100896.16
2023-01-01T12:52:16.615Z,100898.66
2023-01-01T12:55:19.464Z,100895.03
2023-01-01T12:57:50.575Z,100891.19
2023-01-01T13:00:20.331Z,100893.03
2023-01-01T13:02:51.395Z,100884.19
2023-01-01T13:05:25.652Z,100891.59
2023-01-01T13:07:58.395Z,100896.59
2023-01-01T13:10:34.411Z,100892.72
2023-01-01T13:13:02.961Z,100897.50
2023-01-01T13:15:43.310Z,100890.91
2023-01-01T13:18:13.803Z,100886.34
2023-01-01T13:20:43.943Z,100896.28
2023-01-01T13:23:38.208Z,100896.50
2023-01-01T13:26:28.396Z,100900.09
2023-01-01T13:28:57.444Z,100896.75
2023-01-01T13:31:40.417Z,100894.72
2023-01-01T13:34:30.126Z,100901.41
2023-01-01T13:37:17.401Z,100905.31
2023-01-01T13:40:05.545Z,100908.53
2023-01-01T13:42:44.957Z,100905.09
2023-01-01T13:46:01.161Z,100900.88
2023-01-01T13:48:36.992Z,100908.25
2023-01-01T13:51:54.916Z,100916.00
2023-01-01T13:54:26.580Z,100901.41
2023-01-01T13:57:03.410Z,100907.81
2023-01-01T13:59:46.568Z,100917.91
2023-01-01T14:02:29.419Z,100923.72
2023-01-01T14:05:35.148Z,100926.28
2023-01-01T14:08:06.090Z,100937.63
2023-01-01T14:10:37.082Z,100929.31
2023-01-01T14:13:08.495Z,100933.16
2023-01-01T14:15:38.516Z,100932.13
2023-01-01T14:18:11.553Z,100934.41
2023-01-01T14:20:50.541Z,100936.06
2023-01-01T14:23:27.506Z,100932.66
2023-01-01T14:25:55.300Z,100927.91
2023-01-01T14:28:26.348Z,100934.56
2023-01-01T14:30:55.153Z,100931.25
2023-01-01T14:33:26.916Z,100928.16
2023-01-01T14:35:55.929Z,100930.41
2023-01-01T14:38:27.120Z,100938.13
2023-01-01T14:41:12.977Z,100937.38
2023-01-01T14:43:42.755Z,100948.59
2023-01-01T14:46:19.694Z,100950.16
2023-01-01T14:48:50.413Z,100938.06
2023-01-01T14:51:30.598Z,100932.41
2023-01-01T14:54:00.453Z,100934.94
2023-01-01T14:56:32.975Z,100931.28
2023-01-01T14:59:10.146Z,100932.25
2023-01-01T15:01:39.723Z,100940.03
2023-01-01T15:04:26.258Z,100934.84
2023-01-01T15:06:58.773Z,100940.69
2023-01-01T15:09:27.793Z,100939.38
2023-01-01T15:11:56.734Z,100943.62
2023-01-01T15:14:35.736Z,100948.03
2023-01-01T15:17:11.401Z,100952.44
2023-01-01T15:19:43.646Z,100948.87
2023-01-01T15:22:12.561Z,100952.03
2023-01-01T15:24:40.213Z,100953.13
2023-01-01T15:27:20.144Z,100954.19
2023-01-01T15:29:47.978Z,100967.50
2023-01-01T15:32:15.588Z,100969.28
2023-01-01T15:34:42.896Z,100971.06
2023-01-01T15:37:15.923Z,100972.47
2023-01-01T15:40:24.488Z,100973.16
2023-01-01T15:42:54.915Z,100977.66
2023-01-01T15:45:35.323Z,100974.06
2023-01-01T15:48:06.645Z,100978.97
2023-01-01T15:50:43.236Z,100979.53
2023-01-01T15:53:40.162Z,100983.16
2023-01-01T15:56:12.995Z,100988.41
2023-01-01T15:58:48.413Z,100986.00
2023-01-01T16:01:21.084Z,100988.00
2023-01-01T16:03:50.647Z,100993.13
2023-01-01T16:06:20.073Z,100986.50
2023-01-01T16:08:47.505Z,100998.59
2023-01-01T16:11:15.438Z,100984.16
2023-01-01T16:13:43.075Z,100999.53
2023-01-01T16:16:37.061Z,100992.91
2023-01-01T16:19:07.000Z,100986.09
2023-01-01T16:21:34.390Z,100991.84
2023-01-01T16:24:01.966Z,100996.13
2023-01-01T16:26:29.748Z,100991.00
2023-01-01T16:28:57.116Z,100988.12
2023-01-01T16:31:28.730Z,100993.22
2023-01-01T16:33:57.993Z,100985.09
2023-01-01T16:36:29.395Z,100991.84
2023-01-01T16:38:58.119Z,101005.09
2023-01-01T16:41:27.212Z,101000.06
2023-01-01T16:43:56.152Z,101005.34
2023-01-01T16:46:24.123Z,101009.25
2023-01-01T16:48:51.666Z,101013.91
2023-01-01T16:51:28.314Z,101007.25
2023-01-01T16:53:57.395Z,101018.59
2023-01-01T16:56:24.975Z,101021.22
2023-01-01T16:59:00.274Z,101033.00
2023-01-01T17:01:31.456Z,101022.00
2023-01-01T17:04:00.709Z,101024.72
2023-01-01T17:06:28.352Z,101010.09
2023-01-01T17:08:56.476Z,101005.97
2023-01-01T17:11:25.214Z,101008.00
2023-01-01T17:13:53.192Z,101013.19
2023-01-01T17:16:27.305Z,101017.78
2023-01-01T17:19:15.537Z,101017.31
2023-01-01T17:21:45.881Z,101012.66
2023-01-01T17:24:14.493Z,101012.22
2023-01-01T17:26:42.073Z,101014.16
2023-01-01T17:29:10.447Z,101015.16
2023-01-01T17:31:38.869Z,101022.34
2023-01-01T17:34:08.931Z,101015.91
2023-01-01T17:36:39.729Z,101016.63
2023-01-01T17:39:07.567Z,101013.91
2023-01-01T17:41:36.049Z,101021.00
2023-01-01T17:44:04.612Z,101010.59
2023-01-01T17:46:33.172Z,101022.38
2023-01-01T17:49:01.252Z,101014.69
2023-01-01T17:51:29.024Z,101022.69
2023-01-01T17:53:56.762Z,101020.34
2023-01-01T17:56:24.954Z,101025.53
2023-01-01T17:58:53.938Z,101016.34
2023-01-01T18:01:21.903Z,101017.91
2023-01-01T18:03:51.932Z,101025.31
2023-01-01T18:06:19.677Z,101021.88
2023-01-01T18:08:47.771Z,101029.97
2023-01-01T18:11:15.699Z,101029.97
2023-01-01T18:13:43.459Z,101031.75
2023-01-01T18:16:11.445Z,101032.69
2023-01-01T18:18:40.917Z,101027.69
2023-01-01T18:21:12.588Z,101036.87
2023-01-01T18:23:41.481Z,101029.06
2023-01-01T18:26:10.937Z,101035.06
2023-01-01T18:28:39.190Z,101038.22
2023-01-01T18:31:16.151Z,101036.31
2023-01-01T18:33:44.139Z,101030.41
2023-01-01T18:36:14.163Z,101028.09
2023-01-01T18:38:46.560Z,101034.13
2023-01-01T18:41:42.194Z,101026.47
2023-01-01T18:44:24.318Z,101031.47
2023-01-01T18:46:58.630Z,101025.47
2023-01-01T18:49:26.823Z,101031.22
2023-01-01T18:51:57.831Z,101032.28
2023-01-01T18:54:26.332Z,101037.22
2023-01-01T18:57:33.046Z,101032.31
2023-01-01T19:00:26.144Z,101043.34
2023-01-01T19:03:02.952Z,101039.06
2023-01-01T19:05:33.400Z,101039.84
2023-01-01T19:08:07.216Z,101043.03
2023-01-01T19:10:57.997Z,101044.31
2023-01-01T19:13:31.414Z,101041.19
2023-01-01T19:16:42.163Z,101033.97
2023-01-01T19:19:25.059Z,101029.63
2023-01-01T19:22:02.086Z,101032.66
2023-01-01T19:24:31.936Z,101023.28
2023-01-01T19:27:12.309Z,101028.00
2023-01-01T19:29:46.059Z,101028.62
2023-01-01T19:32:14.399Z,101021.84
2023-01-01T19:34:43.036Z,101023.53
2023-01-01T19:37:11.393Z,101023.44
2023-01-01T19:39:40.605Z,101022.12
2023-01-01T19:42:08.698Z,101021.75
2023-01-01T19:44:37.977Z,101019.72
2023-01-01T19:47:06.400Z,101019.87
2023-01-01T19:49:34.846Z,101023.53
2023-01-01T19:52:03.791Z,101016.87
2023-01-01T19:54:31.878Z,101010.91
2023-01-01T19:57:01.509Z,101012.31
2023-01-01T19:59:33.207Z,101011.53
2023-01-01T20:02:43.155Z,101008.66
2023-01-01T20:04:51.887Z,100999.00
2023-01-01T20:07:21.898Z,101009.03
2023-01-01T20:09:49.945Z,101007.44
2023-01-01T20:12:23.062Z,101011.38
2023-01-01T20:14:53.696Z,101015.16
2023-01-01T20:17:22.989Z,101019.78
2023-01-01T20:19:54.598Z,101020.53
2023-01-01T20:22:24.254Z,101015.56
2023-01-01T20:24:53.830Z,101013.97
2023-01-01T20:27:28.070Z,101006.44
2023-01-01T20:29:59.554Z,101017.94
2023-01-01T20:32:29.530Z,101009.44
2023-01-01T20:34:58.411Z,101018.47
2023-01-01T20:37:39.889Z,101015.34
2023-01-01T20:40:10.629Z,101018.56
2023-01-01T20:42:45.048Z,101018.41
2023-01-01T20:45:13.237Z,101020.84
2023-01-01T20:47:42.046Z,101007.59
2023-01-01T20:50:11.151Z,101008.28
2023-01-01T20:52:40.702Z,101011.03
2023-01-01T20:55:09.696Z,101011.25
2023-01-01T20:57:38.623Z,101011.34
2023-01-01T21:00:10.906Z,101023.06
2023-01-01T21:02:41.634Z,101025.50
2023-01-01T21:05:10.246Z,101017.31
2023-01-01T21:07:38.913Z,101018.41
2023-01-01T21:10:08.577Z,101011.72
2023-01-01T21:12:37.909Z,100997.41
2023-01-01T21:15:14.423Z,100998.84
2023-01-01T21:17:44.148Z,101006.06
2023-01-01T21:20:14.332Z,101010.91
2023-01-01T21:22:43.101Z,101009.31
2023-01-01T21:25:50.633Z,101009.03
2023-01-01T21:28:15.860Z,101013.88
2023-01-01T21:30:56.879Z,101024.94
2023-01-01T21:33:31.334Z,101014.03
2023-01-01T21:36:02.415Z,101019.69
2023-01-01T21:38:31.793Z,101017.00
2023-01-01T21:41:00.505Z,101009.34
2023-01-01T21:43:29.804Z,101015.12
2023-01-01T21:46:12.177Z,101017.69
2023-01-01T21:48:45.548Z,101010.50
2023-01-01T21:51:27.403Z,101011.59
2023-01-01T21:54:11.404Z,101005.12
2023-01-01T21:56:40.758Z,101010.78
2023-01-01T21:59:33.527Z,101010.81
2023-01-01T22:02:07.087Z,101007.81
2023-01-01T22:04:45.846Z,101006.63
2023-01-01T22:10:28.780Z,101004.56
2023-01-01T22:12:58.480Z,100998.34
2023-01-01T22:15:30.669Z,101000.50
2023-01-01T22:18:24.789Z,101002.66
2023-01-01T22:20:53.009Z,101000.38
2023-01-01T22:23:26.731Z,101001.00
2023-01-01T22:25:55.384Z,101003.00
2023-01-01T22:28:27.838Z,101004.66
2023-01-01T22:30:59.125Z,100996.75
2023-01-01T22:33:40.484Z,100995.97
2023-01-01T22:36:28.657Z,100994.09
2023-01-01T22:39:01.686Z,100993.06
2023-01-01T22:41:29.392Z,100995.53
2023-01-01T22:44:03.336Z,100990.19
2023-01-01T22:46:36.682Z,100984.34
2023-01-01T22:49:19.982Z,100979.78
2023-01-01T22:51:49.413Z,100986.44
2023-01-01T22:54:16.804Z,100980.34
2023-01-01T22:56:44.204Z,100982.91
2023-01-01T22:59:11.936Z,100977.06
2023-01-01T23:01:39.429Z,100974.97
2023-01-01T23:04:07.012Z,100980.59
2023-01-01T23:06:34.799Z,100958.31
2023-01-01T23:09:02.300Z,100958.34
2023-01-01T23:11:29.948Z,100953.66
2023-01-01T23:14:16.258Z,100974.91
2023-01-01T23:16:43.646Z,100967.62
2023-01-01T23:19:11.597Z,100957.38
2023-01-01T23:21:40.969Z,100962.59
2023-01-01T23:24:11.604Z,100957.31
2023-01-01T23:26:40.436Z,100957.56
2023-01-01T23:29:08.850Z,100962.81
2023-01-01T23:31:37.041Z,100956.34
2023-01-01T23:34:05.029Z,100955.44
2023-01-01T23:36:32.585Z,100940.06
2023-01-01T23:39:00.052Z,100935.56
2023-01-01T23:41:27.715Z,100947.22
2023-01-01T23:43:55.153Z,100946.81
2023-01-01T23:46:22.692Z,100945.91
2023-01-01T23:48:50.744Z,100949.72
2023-01-01T23:51:18.840Z,100946.09
2023-01-01T23:53:46.294Z,100939.03
2023-01-01T23:56:14.072Z,100934.84
2023-01-01T23:58:41.501Z,100939.28
